sensor_id;sensor_type;location;lat;lon;timestamp;temperature;humidity
68387;DHT22;55338;43.062;25.624;2023-05-10T00:00:23;10.60;99.90
68387;DHT22;55338;43.062;25.624;2023-05-10T00:02:49;10.60;99.90
68387;DHT22;55338;43.062;25.624;2023-05-10T00:05:15;10.60;99.90
68387;DHT22;55338;43.062;25.624;2023-05-10T00:07:41;10.50;99.90
68387;DHT22;55338;43.062;25.624;2023-05-10T00:10:10;10.50;99.90
68387;DHT22;55338;43.062;25.624;2023-05-10T00:12:36;10.50;99.90
68387;DHT22;55338;43.062;25.624;2023-05-10T00:15:02;10.40;99.90
68387;DHT22;55338;43.062;25.624;2023-05-10T00:17:28;10.40;99.90
68387;DHT22;55338;43.062;25.624;2023-05-10T00:19:54;10.40;99.90
68387;DHT22;55338;43.062;25.624;2023-05-10T00:22:52;10.40;99.90
68387;DHT22;55338;43.062;25.624;2023-05-10T00:25:18;10.40;99.90
68387;DHT22;55338;43.062;25.624;2023-05-10T00:27:43;10.40;99.90
68387;DHT22;55338;43.062;25.624;2023-05-10T00:30:09;10.40;99.90
68387;DHT22;55338;43.062;25.624;2023-05-10T00:32:35;10.40;99.90
68387;DHT22;55338;43.062;25.624;2023-05-10T00:35:01;10.30;99.90
68387;DHT22;55338;43.062;25.624;2023-05-10T00:37:27;10.30;99.90
68387;DHT22;55338;43.062;25.624;2023-05-10T00:39:53;10.30;99.90
68387;DHT22;55338;43.062;25.624;2023-05-10T00:42:18;10.30;99.90
68387;DHT22;55338;43.062;25.624;2023-05-10T00:44:44;10.20;99.90
68387;DHT22;55338;43.062;25.624;2023-05-10T00:47:10;10.10;99.90
68387;DHT22;55338;43.062;25.624;2023-05-10T00:49:37;10.10;99.90
68387;DHT22;55338;43.062;25.624;2023-05-10T00:52:03;10.00;99.90
68387;DHT22;55338;43.062;25.624;2023-05-10T00:55:01;10.00;99.90
68387;DHT22;55338;43.062;25.624;2023-05-10T00:57:28;10.00;99.90
68387;DHT22;55338;43.062;25.624;2023-05-10T00:59:54;10.00;99.90
68387;DHT22;55338;43.062;25.624;2023-05-10T01:02:20;10.00;99.90
68387;DHT22;55338;43.062;25.624;2023-05-10T01:04:46;9.90;99.90
68387;DHT22;55338;43.062;25.624;2023-05-10T01:07:12;9.90;99.90
68387;DHT22;55338;43.062;25.624;2023-05-10T01:09:38;9.90;99.90
68387;DHT22;55338;43.062;25.624;2023-05-10T01:12:04;9.90;99.90
68387;DHT22;55338;43.062;25.624;2023-05-10T01:14:32;9.90;99.90
68387;DHT22;55338;43.062;25.624;2023-05-10T01:16:59;9.80;99.90
68387;DHT22;55338;43.062;25.624;2023-05-10T01:19:27;9.80;99.90
68387;DHT22;55338;43.062;25.624;2023-05-10T01:33:42;9.60;99.90
68387;DHT22;55338;43.062;25.624;2023-05-10T01:36:45;9.60;99.90
68387;DHT22;55338;43.062;25.624;2023-05-10T01:41:59;9.50;99.90
68387;DHT22;55338;43.062;25.624;2023-05-10T01:47:38;9.30;99.90
68387;DHT22;55338;43.062;25.624;2023-05-10T01:50:17;9.30;99.90
68387;DHT22;55338;43.062;25.624;2023-05-10T01:52:47;9.20;99.90
68387;DHT22;55338;43.062;25.624;2023-05-10T01:55:50;9.20;99.90
68387;DHT22;55338;43.062;25.624;2023-05-10T01:58:50;9.20;99.90
68387;DHT22;55338;43.062;25.624;2023-05-10T02:01:18;9.20;99.90
68387;DHT22;55338;43.062;25.624;2023-05-10T02:03:46;9.10;99.90
68387;DHT22;55338;43.062;25.624;2023-05-10T02:13:27;9.10;99.90
68387;DHT22;55338;43.062;25.624;2023-05-10T02:15:54;9.10;99.90
68387;DHT22;55338;43.062;25.624;2023-05-10T02:18:23;9.10;99.90
68387;DHT22;55338;43.062;25.624;2023-05-10T02:20:50;9.10;99.90
68387;DHT22;55338;43.062;25.624;2023-05-10T02:23:17;9.10;99.90
68387;DHT22;55338;43.062;25.624;2023-05-10T02:25:44;9.10;99.90
68387;DHT22;55338;43.062;25.624;2023-05-10T02:28:11;9.10;99.90
68387;DHT22;55338;43.062;25.624;2023-05-10T02:30:39;9.10;99.90
68387;DHT22;55338;43.062;25.624;2023-05-10T02:33:05;9.10;99.90
68387;DHT22;55338;43.062;25.624;2023-05-10T02:35:32;9.10;99.90
68387;DHT22;55338;43.062;25.624;2023-05-10T02:37:59;9.10;99.90
68387;DHT22;55338;43.062;25.624;2023-05-10T02:40:25;8.90;99.90
68387;DHT22;55338;43.062;25.624;2023-05-10T02:42:55;8.90;99.90
68387;DHT22;55338;43.062;25.624;2023-05-10T02:45:24;8.90;99.90
68387;DHT22;55338;43.062;25.624;2023-05-10T02:47:52;8.80;99.90
68387;DHT22;55338;43.062;25.624;2023-05-10T02:50:18;8.80;99.90
68387;DHT22;55338;43.062;25.624;2023-05-10T02:52:51;8.70;99.90
68387;DHT22;55338;43.062;25.624;2023-05-10T02:55:21;8.70;99.90
68387;DHT22;55338;43.062;25.624;2023-05-10T02:58:19;8.70;99.90
68387;DHT22;55338;43.062;25.624;2023-05-10T03:01:18;8.70;99.90
68387;DHT22;55338;43.062;25.624;2023-05-10T03:03:51;8.60;99.90
68387;DHT22;55338;43.062;25.624;2023-05-10T03:06:16;8.60;99.90
68387;DHT22;55338;43.062;25.624;2023-05-10T03:08:43;8.60;99.90
68387;DHT22;55338;43.062;25.624;2023-05-10T03:16:41;8.50;99.90
68387;DHT22;55338;43.062;25.624;2023-05-10T03:19:30;8.50;99.90
68387;DHT22;55338;43.062;25.624;2023-05-10T03:22:01;8.50;99.90
68387;DHT22;55338;43.062;25.624;2023-05-10T03:24:30;8.50;99.90
68387;DHT22;55338;43.062;25.624;2023-05-10T03:26:59;8.40;99.90
68387;DHT22;55338;43.062;25.624;2023-05-10T03:30:02;8.40;99.90
68387;DHT22;55338;43.062;25.624;2023-05-10T03:33:05;8.50;99.90
68387;DHT22;55338;43.062;25.624;2023-05-10T03:36:03;8.50;99.90
68387;DHT22;55338;43.062;25.624;2023-05-10T03:38:29;8.40;99.90
68387;DHT22;55338;43.062;25.624;2023-05-10T03:40:55;8.40;99.90
68387;DHT22;55338;43.062;25.624;2023-05-10T03:43:21;8.50;99.90
68387;DHT22;55338;43.062;25.624;2023-05-10T03:45:46;8.60;99.90
68387;DHT22;55338;43.062;25.624;2023-05-10T03:48:12;8.60;99.90
68387;DHT22;55338;43.062;25.624;2023-05-10T03:50:39;8.60;99.90
68387;DHT22;55338;43.062;25.624;2023-05-10T03:53:04;8.70;99.90
68387;DHT22;55338;43.062;25.624;2023-05-10T03:55:30;8.90;99.90
68387;DHT22;55338;43.062;25.624;2023-05-10T03:57:59;9.10;99.90
68387;DHT22;55338;43.062;25.624;2023-05-10T04:00:58;9.40;99.90
68387;DHT22;55338;43.062;25.624;2023-05-10T04:03:56;9.60;99.90
68387;DHT22;55338;43.062;25.624;2023-05-10T04:06:54;9.70;99.90
68387;DHT22;55338;43.062;25.624;2023-05-10T04:09:20;9.90;99.90
68387;DHT22;55338;43.062;25.624;2023-05-10T04:11:46;10.10;99.90
68387;DHT22;55338;43.062;25.624;2023-05-10T04:14:11;10.30;99.90
68387;DHT22;55338;43.062;25.624;2023-05-10T04:16:37;10.50;99.90
68387;DHT22;55338;43.062;25.624;2023-05-10T04:19:03;10.70;99.90
68387;DHT22;55338;43.062;25.624;2023-05-10T04:21:29;10.90;99.90
68387;DHT22;55338;43.062;25.624;2023-05-10T04:23:54;11.00;99.90
68387;DHT22;55338;43.062;25.624;2023-05-10T04:26:20;11.10;99.90
68387;DHT22;55338;43.062;25.624;2023-05-10T04:28:47;11.30;99.90
68387;DHT22;55338;43.062;25.624;2023-05-10T04:31:44;11.30;99.90
68387;DHT22;55338;43.062;25.624;2023-05-10T04:34:10;11.40;99.90
68387;DHT22;55338;43.062;25.624;2023-05-10T04:36:36;11.40;99.90
68387;DHT22;55338;43.062;25.624;2023-05-10T04:39:03;11.40;99.90
68387;DHT22;55338;43.062;25.624;2023-05-10T04:41:28;11.40;99.90
68387;DHT22;55338;43.062;25.624;2023-05-10T04:43:55;11.50;99.90
68387;DHT22;55338;43.062;25.624;2023-05-10T04:46:20;11.70;99.90
68387;DHT22;55338;43.062;25.624;2023-05-10T04:48:46;11.90;99.90
68387;DHT22;55338;43.062;25.624;2023-05-10T04:51:12;12.00;99.90
68387;DHT22;55338;43.062;25.624;2023-05-10T04:53:38;12.20;99.90
68387;DHT22;55338;43.062;25.624;2023-05-10T04:56:04;12.30;99.90
68387;DHT22;55338;43.062;25.624;2023-05-10T04:58:29;12.50;99.90
68387;DHT22;55338;43.062;25.624;2023-05-10T05:00:55;12.60;99.90
68387;DHT22;55338;43.062;25.624;2023-05-10T05:03:53;12.70;99.90
68387;DHT22;55338;43.062;25.624;2023-05-10T05:06:19;12.90;99.90
68387;DHT22;55338;43.062;25.624;2023-05-10T05:08:46;13.00;99.90
68387;DHT22;55338;43.062;25.624;2023-05-10T05:11:12;13.10;99.90
68387;DHT22;55338;43.062;25.624;2023-05-10T05:13:38;13.30;99.90
68387;DHT22;55338;43.062;25.624;2023-05-10T05:16:04;13.50;99.90
68387;DHT22;55338;43.062;25.624;2023-05-10T05:18:30;13.70;99.90
68387;DHT22;55338;43.062;25.624;2023-05-10T05:20:56;13.80;98.80
68387;DHT22;55338;43.062;25.624;2023-05-10T05:23:22;13.90;97.40
68387;DHT22;55338;43.062;25.624;2023-05-10T05:25:51;14.00;97.60
68387;DHT22;55338;43.062;25.624;2023-05-10T05:28:18;14.20;96.40
68387;DHT22;55338;43.062;25.624;2023-05-10T05:30:44;14.30;92.50
68387;DHT22;55338;43.062;25.624;2023-05-10T05:33:09;14.40;89.50
68387;DHT22;55338;43.062;25.624;2023-05-10T05:36:08;14.40;88.00
68387;DHT22;55338;43.062;25.624;2023-05-10T05:38:33;14.40;90.50
68387;DHT22;55338;43.062;25.624;2023-05-10T05:40:59;14.60;88.10
68387;DHT22;55338;43.062;25.624;2023-05-10T05:43:25;14.80;87.90
68387;DHT22;55338;43.062;25.624;2023-05-10T05:45:52;14.90;84.20
68387;DHT22;55338;43.062;25.624;2023-05-10T05:48:19;15.10;83.60
68387;DHT22;55338;43.062;25.624;2023-05-10T05:50:45;15.30;81.20
68387;DHT22;55338;43.062;25.624;2023-05-10T05:53:11;15.30;78.50
68387;DHT22;55338;43.062;25.624;2023-05-10T05:55:36;15.50;77.00
68387;DHT22;55338;43.062;25.624;2023-05-10T05:58:02;15.60;74.80
68387;DHT22;55338;43.062;25.624;2023-05-10T06:00:28;15.90;73.60
68387;DHT22;55338;43.062;25.624;2023-05-10T06:02:54;16.00;72.80
68387;DHT22;55338;43.062;25.624;2023-05-10T06:05:20;16.10;72.00
68387;DHT22;55338;43.062;25.624;2023-05-10T06:07:52;16.30;71.20
68387;DHT22;55338;43.062;25.624;2023-05-10T06:10:18;16.50;70.10
68387;DHT22;55338;43.062;25.624;2023-05-10T06:12:43;16.70;69.20
68387;DHT22;55338;43.062;25.624;2023-05-10T06:15:09;16.90;66.40
68387;DHT22;55338;43.062;25.624;2023-05-10T06:17:35;16.80;66.20
68387;DHT22;55338;43.062;25.624;2023-05-10T06:20:01;16.90;66.20
68387;DHT22;55338;43.062;25.624;2023-05-10T06:22:27;16.80;63.60
68387;DHT22;55338;43.062;25.624;2023-05-10T06:24:53;16.90;64.70
68387;DHT22;55338;43.062;25.624;2023-05-10T06:27:19;17.30;64.50
68387;DHT22;55338;43.062;25.624;2023-05-10T06:29:44;17.30;63.30
68387;DHT22;55338;43.062;25.624;2023-05-10T06:32:10;17.40;63.50
68387;DHT22;55338;43.062;25.624;2023-05-10T06:34:36;17.50;60.80
68387;DHT22;55338;43.062;25.624;2023-05-10T06:37:02;17.60;60.00
68387;DHT22;55338;43.062;25.624;2023-05-10T06:39:40;17.70;60.30
68387;DHT22;55338;43.062;25.624;2023-05-10T06:42:06;17.90;58.90
68387;DHT22;55338;43.062;25.624;2023-05-10T06:44:31;18.10;59.30
68387;DHT22;55338;43.062;25.624;2023-05-10T06:46:57;18.10;58.40
68387;DHT22;55338;43.062;25.624;2023-05-10T06:49:23;18.20;57.70
68387;DHT22;55338;43.062;25.624;2023-05-10T06:51:48;18.20;57.60
68387;DHT22;55338;43.062;25.624;2023-05-10T06:54:14;18.50;59.40
68387;DHT22;55338;43.062;25.624;2023-05-10T06:56:40;18.60;57.70
68387;DHT22;55338;43.062;25.624;2023-05-10T06:59:06;18.80;57.40
68387;DHT22;55338;43.062;25.624;2023-05-10T07:01:32;19.00;57.50
68387;DHT22;55338;43.062;25.624;2023-05-10T07:03:57;19.10;56.80
68387;DHT22;55338;43.062;25.624;2023-05-10T07:06:23;19.30;56.40
68387;DHT22;55338;43.062;25.624;2023-05-10T07:08:49;19.60;55.80
68387;DHT22;55338;43.062;25.624;2023-05-10T07:11:47;19.60;55.40
68387;DHT22;55338;43.062;25.624;2023-05-10T07:14:13;19.70;55.70
68387;DHT22;55338;43.062;25.624;2023-05-10T07:16:38;19.80;56.20
68387;DHT22;55338;43.062;25.624;2023-05-10T07:19:04;20.00;53.40
68387;DHT22;55338;43.062;25.624;2023-05-10T07:21:30;20.20;52.20
68387;DHT22;55338;43.062;25.624;2023-05-10T07:23:56;20.00;52.80
68387;DHT22;55338;43.062;25.624;2023-05-10T07:26:22;20.30;53.60
68387;DHT22;55338;43.062;25.624;2023-05-10T07:28:48;20.00;52.00
68387;DHT22;55338;43.062;25.624;2023-05-10T07:31:14;20.10;51.80
68387;DHT22;55338;43.062;25.624;2023-05-10T07:33:39;20.10;51.00
68387;DHT22;55338;43.062;25.624;2023-05-10T07:36:05;20.60;52.80
68387;DHT22;55338;43.062;25.624;2023-05-10T07:38:31;20.90;52.40
68387;DHT22;55338;43.062;25.624;2023-05-10T07:40:57;21.10;49.70
68387;DHT22;55338;43.062;25.624;2023-05-10T07:43:23;21.20;49.30
68387;DHT22;55338;43.062;25.624;2023-05-10T07:45:48;21.40;48.70
68387;DHT22;55338;43.062;25.624;2023-05-10T07:48:14;21.70;48.80
68387;DHT22;55338;43.062;25.624;2023-05-10T07:50:40;22.00;47.40
68387;DHT22;55338;43.062;25.624;2023-05-10T07:53:05;21.80;46.70
68387;DHT22;55338;43.062;25.624;2023-05-10T07:55:31;21.70;47.90
68387;DHT22;55338;43.062;25.624;2023-05-10T07:57:58;21.90;46.80
68387;DHT22;55338;43.062;25.624;2023-05-10T08:00:26;22.40;46.50
68387;DHT22;55338;43.062;25.624;2023-05-10T08:02:52;22.30;46.70
68387;DHT22;55338;43.062;25.624;2023-05-10T08:05:18;22.20;45.60
68387;DHT22;55338;43.062;25.624;2023-05-10T08:07:44;22.20;44.30
68387;DHT22;55338;43.062;25.624;2023-05-10T08:10:10;22.90;44.10
68387;DHT22;55338;43.062;25.624;2023-05-10T08:12:37;23.00;42.90
68387;DHT22;55338;43.062;25.624;2023-05-10T08:15:36;23.00;42.70
68387;DHT22;55338;43.062;25.624;2023-05-10T08:18:02;22.90;44.50
68387;DHT22;55338;43.062;25.624;2023-05-10T08:20:27;23.30;42.00
68387;DHT22;55338;43.062;25.624;2023-05-10T08:22:53;23.70;41.60
68387;DHT22;55338;43.062;25.624;2023-05-10T08:25:19;23.20;41.90
68387;DHT22;55338;43.062;25.624;2023-05-10T08:27:44;22.60;44.50
68387;DHT22;55338;43.062;25.624;2023-05-10T08:30:10;22.90;44.70
68387;DHT22;55338;43.062;25.624;2023-05-10T08:32:37;23.30;42.00
68387;DHT22;55338;43.062;25.624;2023-05-10T08:35:03;23.60;41.30
68387;DHT22;55338;43.062;25.624;2023-05-10T08:37:32;23.50;41.70
68387;DHT22;55338;43.062;25.624;2023-05-10T08:39:58;23.70;40.70
68387;DHT22;55338;43.062;25.624;2023-05-10T08:42:26;23.90;40.50
68387;DHT22;55338;43.062;25.624;2023-05-10T08:44:54;24.20;41.90
68387;DHT22;55338;43.062;25.624;2023-05-10T08:47:25;24.80;39.90
68387;DHT22;55338;43.062;25.624;2023-05-10T08:49:52;25.00;39.50
68387;DHT22;55338;43.062;25.624;2023-05-10T08:52:18;25.10;37.40
68387;DHT22;55338;43.062;25.624;2023-05-10T08:54:44;25.20;38.50
68387;DHT22;55338;43.062;25.624;2023-05-10T08:57:10;25.00;37.50
68387;DHT22;55338;43.062;25.624;2023-05-10T08:59:36;24.70;38.10
68387;DHT22;55338;43.062;25.624;2023-05-10T09:02:05;25.20;37.80
68387;DHT22;55338;43.062;25.624;2023-05-10T09:04:31;24.80;37.10
68387;DHT22;55338;43.062;25.624;2023-05-10T09:06:57;25.10;37.00
68387;DHT22;55338;43.062;25.624;2023-05-10T09:09:24;25.10;38.00
68387;DHT22;55338;43.062;25.624;2023-05-10T09:11:51;23.90;38.30
68387;DHT22;55338;43.062;25.624;2023-05-10T09:14:18;23.20;40.50
68387;DHT22;55338;43.062;25.624;2023-05-10T09:17:17;24.50;43.90
68387;DHT22;55338;43.062;25.624;2023-05-10T09:19:58;24.50;39.00
68387;DHT22;55338;43.062;25.624;2023-05-10T09:22:24;24.60;39.80
68387;DHT22;55338;43.062;25.624;2023-05-10T09:25:10;24.80;38.20
68387;DHT22;55338;43.062;25.624;2023-05-10T09:27:38;23.90;38.60
68387;DHT22;55338;43.062;25.624;2023-05-10T09:30:05;23.00;41.00
68387;DHT22;55338;43.062;25.624;2023-05-10T09:32:44;22.50;42.90
68387;DHT22;55338;43.062;25.624;2023-05-10T09:35:12;22.70;43.00
68387;DHT22;55338;43.062;25.624;2023-05-10T09:37:43;22.50;42.00
68387;DHT22;55338;43.062;25.624;2023-05-10T09:40:14;22.30;43.10
68387;DHT22;55338;43.062;25.624;2023-05-10T09:42:43;23.40;40.90
68387;DHT22;55338;43.062;25.624;2023-05-10T09:45:15;23.30;41.30
68387;DHT22;55338;43.062;25.624;2023-05-10T09:48:13;22.90;40.30
68387;DHT22;55338;43.062;25.624;2023-05-10T09:51:24;23.20;41.70
68387;DHT22;55338;43.062;25.624;2023-05-10T09:54:11;22.60;40.40
68387;DHT22;55338;43.062;25.624;2023-05-10T09:56:38;23.00;40.70
68387;DHT22;55338;43.062;25.624;2023-05-10T09:59:08;23.30;38.80
68387;DHT22;55338;43.062;25.624;2023-05-10T10:01:34;23.10;39.70
68387;DHT22;55338;43.062;25.624;2023-05-10T10:04:06;22.70;40.50
68387;DHT22;55338;43.062;25.624;2023-05-10T10:06:39;22.30;41.60
68387;DHT22;55338;43.062;25.624;2023-05-10T10:09:09;22.70;40.30
68387;DHT22;55338;43.062;25.624;2023-05-10T10:11:38;23.10;40.30
68387;DHT22;55338;43.062;25.624;2023-05-10T10:14:05;23.10;39.70
68387;DHT22;55338;43.062;25.624;2023-05-10T10:16:31;22.60;39.30
68387;DHT22;55338;43.062;25.624;2023-05-10T10:19:30;22.30;39.80
68387;DHT22;55338;43.062;25.624;2023-05-10T10:22:30;22.10;40.50
68387;DHT22;55338;43.062;25.624;2023-05-10T10:24:55;22.90;40.10
68387;DHT22;55338;43.062;25.624;2023-05-10T10:27:23;22.70;39.70
68387;DHT22;55338;43.062;25.624;2023-05-10T10:30:10;22.30;41.20
68387;DHT22;55338;43.062;25.624;2023-05-10T10:35:58;22.00;41.80
68387;DHT22;55338;43.062;25.624;2023-05-10T10:38:24;21.80;42.70
68387;DHT22;55338;43.062;25.624;2023-05-10T10:52:36;23.10;39.10
68387;DHT22;55338;43.062;25.624;2023-05-10T10:55:20;22.60;40.00
68387;DHT22;55338;43.062;25.624;2023-05-10T10:57:57;22.20;40.30
68387;DHT22;55338;43.062;25.624;2023-05-10T11:00:29;22.10;40.30
68387;DHT22;55338;43.062;25.624;2023-05-10T11:03:15;22.10;40.00
68387;DHT22;55338;43.062;25.624;2023-05-10T11:05:50;22.20;40.50
68387;DHT22;55338;43.062;25.624;2023-05-10T11:08:31;22.00;40.50
68387;DHT22;55338;43.062;25.624;2023-05-10T11:13:34;21.80;42.90
68387;DHT22;55338;43.062;25.624;2023-05-10T11:16:20;21.40;43.90
68387;DHT22;55338;43.062;25.624;2023-05-10T11:19:10;21.20;45.00
68387;DHT22;55338;43.062;25.624;2023-05-10T11:22:13;21.00;43.80
68387;DHT22;55338;43.062;25.624;2023-05-10T11:24:56;21.00;43.80
68387;DHT22;55338;43.062;25.624;2023-05-10T11:27:22;21.10;43.20
68387;DHT22;55338;43.062;25.624;2023-05-10T11:29:51;21.30;43.90
68387;DHT22;55338;43.062;25.624;2023-05-10T11:32:17;21.40;44.90
68387;DHT22;55338;43.062;25.624;2023-05-10T11:34:47;21.40;45.70
68387;DHT22;55338;43.062;25.624;2023-05-10T11:37:13;20.70;45.40
68387;DHT22;55338;43.062;25.624;2023-05-10T11:40:11;20.50;45.40
68387;DHT22;55338;43.062;25.624;2023-05-10T11:43:10;20.50;47.80
68387;DHT22;55338;43.062;25.624;2023-05-10T11:46:11;20.50;48.40
68387;DHT22;55338;43.062;25.624;2023-05-10T11:49:10;20.60;47.50
68387;DHT22;55338;43.062;25.624;2023-05-10T11:52:09;20.70;47.50
68387;DHT22;55338;43.062;25.624;2023-05-10T11:54:36;21.10;46.00
68387;DHT22;55338;43.062;25.624;2023-05-10T11:57:02;21.20;46.80
68387;DHT22;55338;43.062;25.624;2023-05-10T11:59:28;21.30;47.10
68387;DHT22;55338;43.062;25.624;2023-05-10T12:01:54;21.80;45.80
68387;DHT22;55338;43.062;25.624;2023-05-10T12:04:20;23.10;44.30
68387;DHT22;55338;43.062;25.624;2023-05-10T12:06:47;23.00;42.70
68387;DHT22;55338;43.062;25.624;2023-05-10T12:09:14;22.90;42.40
68387;DHT22;55338;43.062;25.624;2023-05-10T12:11:40;23.50;42.40
68387;DHT22;55338;43.062;25.624;2023-05-10T12:14:08;23.70;40.90
68387;DHT22;55338;43.062;25.624;2023-05-10T12:16:34;23.60;42.40
68387;DHT22;55338;43.062;25.624;2023-05-10T12:19:00;24.20;40.50
68387;DHT22;55338;43.062;25.624;2023-05-10T12:21:28;25.40;39.20
68387;DHT22;55338;43.062;25.624;2023-05-10T12:24:26;25.90;37.20
68387;DHT22;55338;43.062;25.624;2023-05-10T12:26:55;26.60;35.70
68387;DHT22;55338;43.062;25.624;2023-05-10T12:29:21;27.10;36.40
68387;DHT22;55338;43.062;25.624;2023-05-10T12:31:57;27.30;33.90
68387;DHT22;55338;43.062;25.624;2023-05-10T12:36:56;26.10;36.20
68387;DHT22;55338;43.062;25.624;2023-05-10T12:39:23;25.20;37.40
68387;DHT22;55338;43.062;25.624;2023-05-10T12:41:49;25.50;38.00
68387;DHT22;55338;43.062;25.624;2023-05-10T12:44:15;25.00;37.50
68387;DHT22;55338;43.062;25.624;2023-05-10T12:46:40;24.60;38.50
68387;DHT22;55338;43.062;25.624;2023-05-10T12:49:06;24.10;39.50
68387;DHT22;55338;43.062;25.624;2023-05-10T12:51:32;23.60;40.40
68387;DHT22;55338;43.062;25.624;2023-05-10T12:53:58;23.20;40.30
68387;DHT22;55338;43.062;25.624;2023-05-10T12:56:23;23.00;41.40
68387;DHT22;55338;43.062;25.624;2023-05-10T12:58:49;22.50;43.10
68387;DHT22;55338;43.062;25.624;2023-05-10T13:01:18;22.30;43.70
68387;DHT22;55338;43.062;25.624;2023-05-10T13:03:44;22.00;44.20
68387;DHT22;55338;43.062;25.624;2023-05-10T13:06:09;21.80;44.70
68387;DHT22;55338;43.062;25.624;2023-05-10T13:08:35;21.60;45.80
68387;DHT22;55338;43.062;25.624;2023-05-10T13:11:01;21.20;46.10
68387;DHT22;55338;43.062;25.624;2023-05-10T13:13:28;20.80;48.10
68387;DHT22;55338;43.062;25.624;2023-05-10T13:15:53;20.40;48.50
68387;DHT22;55338;43.062;25.624;2023-05-10T13:18:20;20.10;49.30
68387;DHT22;55338;43.062;25.624;2023-05-10T13:20:46;19.80;50.10
68387;DHT22;55338;43.062;25.624;2023-05-10T13:23:11;19.50;51.20
68387;DHT22;55338;43.062;25.624;2023-05-10T13:25:41;19.40;52.00
68387;DHT22;55338;43.062;25.624;2023-05-10T13:28:07;19.40;51.90
68387;DHT22;55338;43.062;25.624;2023-05-10T13:30:33;19.10;51.80
68387;DHT22;55338;43.062;25.624;2023-05-10T13:32:59;19.10;52.70
68387;DHT22;55338;43.062;25.624;2023-05-10T13:35:24;18.80;53.40
68387;DHT22;55338;43.062;25.624;2023-05-10T13:37:50;18.60;54.10
68387;DHT22;55338;43.062;25.624;2023-05-10T13:40:16;18.70;54.20
68387;DHT22;55338;43.062;25.624;2023-05-10T13:42:42;18.70;55.10
68387;DHT22;55338;43.062;25.624;2023-05-10T13:45:08;18.80;54.90
68387;DHT22;55338;43.062;25.624;2023-05-10T13:47:34;18.80;54.60
68387;DHT22;55338;43.062;25.624;2023-05-10T13:49:59;18.80;53.80
68387;DHT22;55338;43.062;25.624;2023-05-10T13:52:26;18.80;53.30
68387;DHT22;55338;43.062;25.624;2023-05-10T13:54:53;18.60;54.40
68387;DHT22;55338;43.062;25.624;2023-05-10T13:57:21;18.70;53.90
68387;DHT22;55338;43.062;25.624;2023-05-10T13:59:47;18.60;54.40
68387;DHT22;55338;43.062;25.624;2023-05-10T14:02:13;18.60;54.60
68387;DHT22;55338;43.062;25.624;2023-05-10T14:04:39;18.70;54.60
68387;DHT22;55338;43.062;25.624;2023-05-10T14:07:05;18.70;54.70
68387;DHT22;55338;43.062;25.624;2023-05-10T14:09:31;18.50;54.00
68387;DHT22;55338;43.062;25.624;2023-05-10T14:11:56;18.50;54.50
68387;DHT22;55338;43.062;25.624;2023-05-10T14:14:23;18.60;54.00
68387;DHT22;55338;43.062;25.624;2023-05-10T14:16:48;18.80;53.40
68387;DHT22;55338;43.062;25.624;2023-05-10T14:19:14;18.80;53.70
68387;DHT22;55338;43.062;25.624;2023-05-10T14:21:40;19.00;53.70
68387;DHT22;55338;43.062;25.624;2023-05-10T14:24:06;19.30;52.60
68387;DHT22;55338;43.062;25.624;2023-05-10T14:26:32;19.40;51.40
68387;DHT22;55338;43.062;25.624;2023-05-10T14:28:59;19.70;51.20
68387;DHT22;55338;43.062;25.624;2023-05-10T14:31:25;19.70;51.40
68387;DHT22;55338;43.062;25.624;2023-05-10T14:33:51;19.90;51.30
68387;DHT22;55338;43.062;25.624;2023-05-10T14:36:17;20.00;50.60
68387;DHT22;55338;43.062;25.624;2023-05-10T14:38:43;20.20;50.30
68387;DHT22;55338;43.062;25.624;2023-05-10T14:41:09;20.20;49.90
68387;DHT22;55338;43.062;25.624;2023-05-10T14:43:39;20.30;49.30
68387;DHT22;55338;43.062;25.624;2023-05-10T14:46:05;20.30;50.40
68387;DHT22;55338;43.062;25.624;2023-05-10T14:48:30;20.40;49.10
68387;DHT22;55338;43.062;25.624;2023-05-10T14:50:56;19.90;48.80
68387;DHT22;55338;43.062;25.624;2023-05-10T14:53:22;19.90;49.60
68387;DHT22;55338;43.062;25.624;2023-05-10T14:55:48;19.60;49.70
68387;DHT22;55338;43.062;25.624;2023-05-10T14:58:14;19.50;49.80
68387;DHT22;55338;43.062;25.624;2023-05-10T15:00:40;19.60;50.10
68387;DHT22;55338;43.062;25.624;2023-05-10T15:03:06;19.70;49.70
68387;DHT22;55338;43.062;25.624;2023-05-10T15:05:32;19.70;49.40
68387;DHT22;55338;43.062;25.624;2023-05-10T15:07:57;19.60;50.70
68387;DHT22;55338;43.062;25.624;2023-05-10T15:10:23;19.70;50.10
68387;DHT22;55338;43.062;25.624;2023-05-10T15:12:49;19.70;51.20
68387;DHT22;55338;43.062;25.624;2023-05-10T15:15:15;19.70;51.00
68387;DHT22;55338;43.062;25.624;2023-05-10T15:17:41;19.40;50.20
68387;DHT22;55338;43.062;25.624;2023-05-10T15:20:07;19.20;50.80
68387;DHT22;55338;43.062;25.624;2023-05-10T15:22:33;19.30;51.60
68387;DHT22;55338;43.062;25.624;2023-05-10T15:24:59;19.50;50.90
68387;DHT22;55338;43.062;25.624;2023-05-10T15:27:25;19.40;50.80
68387;DHT22;55338;43.062;25.624;2023-05-10T15:29:59;19.50;51.00
68387;DHT22;55338;43.062;25.624;2023-05-10T15:32:25;19.60;50.90
68387;DHT22;55338;43.062;25.624;2023-05-10T15:34:50;19.50;50.90
68387;DHT22;55338;43.062;25.624;2023-05-10T15:37:16;19.50;51.70
68387;DHT22;55338;43.062;25.624;2023-05-10T15:39:43;19.50;50.80
68387;DHT22;55338;43.062;25.624;2023-05-10T15:42:08;19.40;50.50
68387;DHT22;55338;43.062;25.624;2023-05-10T15:44:34;19.40;50.90
68387;DHT22;55338;43.062;25.624;2023-05-10T15:47:01;19.40;52.10
68387;DHT22;55338;43.062;25.624;2023-05-10T15:49:28;19.30;53.20
68387;DHT22;55338;43.062;25.624;2023-05-10T15:51:53;19.30;52.70
68387;DHT22;55338;43.062;25.624;2023-05-10T15:54:19;19.30;52.30
68387;DHT22;55338;43.062;25.624;2023-05-10T15:56:45;19.20;52.50
68387;DHT22;55338;43.062;25.624;2023-05-10T15:59:12;19.20;53.60
68387;DHT22;55338;43.062;25.624;2023-05-10T16:01:37;19.20;53.70
68387;DHT22;55338;43.062;25.624;2023-05-10T16:04:03;19.20;54.20
68387;DHT22;55338;43.062;25.624;2023-05-10T16:06:29;19.10;54.10
68387;DHT22;55338;43.062;25.624;2023-05-10T16:08:55;19.10;54.80
68387;DHT22;55338;43.062;25.624;2023-05-10T16:11:21;19.00;54.40
68387;DHT22;55338;43.062;25.624;2023-05-10T16:13:47;18.80;54.70
68387;DHT22;55338;43.062;25.624;2023-05-10T16:16:12;18.50;54.20
68387;DHT22;55338;43.062;25.624;2023-05-10T16:18:38;18.30;54.80
68387;DHT22;55338;43.062;25.624;2023-05-10T16:21:04;18.10;56.00
68387;DHT22;55338;43.062;25.624;2023-05-10T16:23:30;18.10;55.00